createdAt,value
2022-09-09T00:00:02.943Z,2.1
2022-09-09T00:02:06.169Z,1.8
2022-09-09T00:04:13.581Z,2.1
2022-09-09T00:06:10.543Z,1.9
2022-09-09T00:08:04.814Z,2.0
2022-09-09T00:10:18.639Z,2.0
2022-09-09T00:12:07.758Z,1.9
2022-09-09T00:14:07.258Z,2.0
2022-09-09T00:16:09.446Z,2.0
2022-09-09T00:18:10.615Z,1.8
2022-09-09T00:20:10.713Z,1.9
2022-09-09T00:22:17.062Z,2.0
2022-09-09T00:24:11.635Z,2.0
2022-09-09T00:26:10.475Z,2.2
2022-09-09T00:28:02.917Z,2.0
2022-09-09T00:30:19.176Z,1.9
2022-09-09T00:32:13.036Z,1.9
2022-09-09T00:34:11.756Z,2.0
2022-09-09T00:36:03.665Z,2.0
2022-09-09T00:38:11.847Z,2.1
2022-09-09T00:40:17.711Z,2.0
2022-09-09T00:42:15.130Z,2.0
2022-09-09T00:44:14.177Z,2.0
2022-09-09T00:46:23.747Z,2.1
2022-09-09T00:48:09.660Z,2.1
2022-09-09T00:50:09.385Z,2.2
2022-09-09T00:52:12.935Z,2.1
2022-09-09T00:54:22.326Z,2.0
2022-09-09T00:56:13.671Z,2.0
2022-09-09T00:58:02.743Z,2.2
2022-09-09T01:00:21.374Z,1.9
2022-09-09T01:02:03.806Z,2.2
2022-09-09T01:04:09.981Z,2.2
2022-09-09T01:06:06.461Z,2.7
2022-09-09T01:08:06.472Z,1.9
2022-09-09T01:10:08.011Z,2.3
2022-09-09T01:12:11.234Z,2.1
2022-09-09T01:14:12.879Z,2.4
2022-09-09T01:16:06.536Z,2.2
2022-09-09T01:18:07.026Z,2.1
2022-09-09T01:20:08.030Z,2.3
2022-09-09T01:22:12.676Z,2.0
2022-09-09T01:24:15.437Z,2.2
2022-09-09T01:26:16.542Z,2.4
2022-09-09T01:28:09.705Z,2.4
2022-09-09T01:30:02.921Z,2.3
2022-09-09T01:32:13.054Z,2.1
2022-09-09T01:34:02.723Z,2.4
2022-09-09T01:36:09.175Z,2.3
2022-09-09T01:38:02.282Z,2.4
2022-09-09T01:40:04.587Z,2.3
2022-09-09T01:42:03.291Z,2.5
2022-09-09T01:44:03.114Z,2.5
2022-09-09T01:46:03.487Z,2.7
2022-09-09T01:48:03.275Z,2.3
2022-09-09T01:50:03.636Z,2.6
2022-09-09T01:52:03.503Z,2.6
2022-09-09T01:54:03.579Z,2.3
2022-09-09T01:56:14.781Z,2.8
2022-09-09T01:58:14.752Z,2.2
2022-09-09T02:00:07.610Z,2.6
2022-09-09T02:02:11.062Z,2.4
2022-09-09T02:04:13.189Z,2.3
2022-09-09T02:06:14.064Z,2.0
2022-09-09T02:08:08.932Z,2.1
2022-09-09T02:10:10.002Z,2.4
2022-09-09T02:12:07.801Z,2.4
2022-09-09T02:14:07.636Z,2.3
2022-09-09T02:16:09.107Z,2.2
2022-09-09T02:18:08.474Z,2.3
2022-09-09T02:20:08.084Z,1.9
2022-09-09T02:22:03.377Z,2.5
2022-09-09T02:24:09.623Z,2.3
2022-09-09T02:26:05.306Z,2.4
2022-09-09T02:28:04.609Z,2.3
2022-09-09T02:30:04.448Z,2.0
2022-09-09T02:32:07.780Z,2.3
2022-09-09T02:34:04.175Z,2.3
2022-09-09T02:36:07.291Z,2.2
2022-09-09T02:38:09.051Z,2.1
2022-09-09T02:40:03.923Z,2.2
2022-09-09T02:42:04.413Z,2.1
2022-09-09T02:44:06.548Z,2.3
2022-09-09T02:46:16.439Z,2.1
2022-09-09T02:48:12.526Z,2.4
2022-09-09T02:50:12.418Z,2.4
2022-09-09T02:52:07.128Z,2.5
2022-09-09T02:54:13.041Z,2.5
2022-09-09T02:56:10.020Z,2.1
2022-09-09T02:58:06.572Z,2.1
2022-09-09T03:00:03.395Z,2.3
2022-09-09T03:02:02.359Z,2.4
2022-09-09T03:04:02.640Z,1.9
2022-09-09T03:06:02.334Z,2.4
2022-09-09T03:08:03.940Z,2.2
2022-09-09T03:10:02.689Z,2.3
2022-09-09T03:12:02.871Z,2.2
2022-09-09T03:14:03.395Z,2.2
2022-09-09T03:16:04.544Z,2.4
2022-09-09T03:18:03.363Z,2.2
2022-09-09T03:20:02.899Z,2.6
2022-09-09T03:22:04.998Z,2.4
2022-09-09T03:24:03.953Z,2.3
2022-09-09T03:26:02.127Z,2.3
2022-09-09T03:28:03.237Z,2.2
2022-09-09T03:30:04.341Z,2.3
2022-09-09T03:32:03.308Z,2.2
2022-09-09T03:34:03.208Z,2.5
2022-09-09T03:36:02.514Z,2.3
2022-09-09T03:38:02.139Z,2.1
2022-09-09T03:40:02.852Z,2.4
2022-09-09T03:42:04.512Z,2.2
2022-09-09T03:44:02.457Z,2.5
2022-09-09T03:46:02.626Z,2.5
2022-09-09T03:48:02.409Z,2.3
2022-09-09T03:50:02.190Z,2.4
2022-09-09T03:52:02.608Z,2.3
2022-09-09T03:54:02.284Z,2.5
2022-09-09T03:56:03.813Z,2.3
2022-09-09T03:58:02.160Z,2.3
2022-09-09T04:00:04.040Z,2.2
2022-09-09T04:02:02.886Z,2.5
2022-09-09T04:04:02.862Z,2.6
2022-09-09T04:06:05.215Z,2.7
2022-09-09T04:08:02.479Z,2.2
2022-09-09T04:10:02.752Z,2.7
2022-09-09T04:12:02.377Z,2.4
2022-09-09T04:14:02.161Z,2.3
2022-09-09T04:16:04.510Z,2.3
2022-09-09T04:18:03.355Z,2.6
2022-09-09T04:20:02.451Z,2.2
2022-09-09T04:22:02.314Z,2.1
2022-09-09T04:24:02.360Z,2.2
2022-09-09T04:26:04.547Z,2.1
2022-09-09T04:28:03.177Z,2.2
2022-09-09T04:30:03.614Z,1.9
2022-09-09T04:32:02.395Z,2.4
2022-09-09T04:34:05.580Z,2.5
2022-09-09T04:36:10.422Z,2.3
2022-09-09T04:38:03.417Z,2.2
2022-09-09T04:40:03.875Z,2.4
2022-09-09T04:42:02.837Z,2.1
2022-09-09T04:44:03.150Z,2.1
2022-09-09T04:46:02.941Z,2.2
2022-09-09T04:48:03.303Z,2.0
2022-09-09T04:50:02.244Z,2.3
2022-09-09T04:52:03.901Z,2.1
2022-09-09T04:54:02.155Z,2.1
2022-09-09T04:56:04.967Z,2.1
2022-09-09T04:58:05.918Z,2.1
2022-09-09T05:00:03.192Z,2.3
2022-09-09T05:02:04.632Z,2.0
2022-09-09T05:04:03.281Z,2.1
2022-09-09T05:06:07.679Z,2.0
2022-09-09T05:08:03.356Z,2.1
2022-09-09T05:10:06.497Z,2.2
2022-09-09T05:12:03.443Z,1.9
2022-09-09T05:14:02.114Z,2.0
2022-09-09T05:16:03.040Z,2.2
2022-09-09T05:18:03.112Z,2.3
2022-09-09T05:20:09.058Z,2.0
2022-09-09T05:22:02.848Z,2.3
2022-09-09T05:24:02.332Z,2.3
2022-09-09T05:26:03.860Z,2.1
2022-09-09T05:28:02.571Z,2.4
2022-09-09T05:30:02.235Z,2.0
2022-09-09T05:32:02.574Z,2.1
2022-09-09T05:36:05.533Z,2.2
2022-09-09T05:38:02.651Z,2.1
2022-09-09T05:40:02.850Z,2.0
2022-09-09T05:42:03.447Z,2.3
2022-09-09T05:44:02.397Z,2.3
2022-09-09T05:46:05.114Z,2.2
2022-09-09T05:48:03.346Z,2.6
2022-09-09T05:50:02.839Z,2.3
2022-09-09T05:52:03.831Z,2.4
2022-09-09T05:54:02.167Z,2.4
2022-09-09T05:56:04.782Z,2.3
2022-09-09T05:58:02.136Z,2.4
2022-09-09T06:00:03.263Z,2.3
2022-09-09T06:02:02.772Z,2.2
2022-09-09T06:04:04.334Z,2.4
2022-09-09T06:06:06.146Z,2.3
2022-09-09T06:08:02.268Z,2.2
2022-09-09T06:10:02.148Z,2.1
2022-09-09T06:12:03.293Z,2.2
2022-09-09T06:14:02.471Z,2.2
2022-09-09T06:16:02.702Z,2.3
2022-09-09T06:18:02.171Z,2.3
2022-09-09T06:20:02.228Z,2.3
2022-09-09T06:22:02.127Z,2.2
2022-09-09T06:24:02.786Z,2.2
2022-09-09T06:26:06.180Z,2.2
2022-09-09T06:28:03.217Z,2.2
2022-09-09T06:30:03.412Z,2.2
2022-09-09T06:32:02.421Z,2.4
2022-09-09T06:34:05.057Z,2.0
2022-09-09T06:36:04.519Z,2.3
2022-09-09T06:38:02.663Z,2.4
2022-09-09T06:40:03.322Z,1.9
2022-09-09T06:42:02.235Z,2.0
2022-09-09T06:44:03.799Z,2.3
2022-09-09T06:46:05.344Z,2.1
2022-09-09T06:48:02.393Z,2.1
2022-09-09T06:50:02.110Z,2.1
2022-09-09T06:52:02.529Z,2.0
2022-09-09T06:54:04.480Z,2.1
2022-09-09T06:56:02.658Z,1.9
2022-09-09T06:58:03.183Z,2.0
2022-09-09T07:00:04.659Z,2.0
2022-09-09T07:02:03.724Z,2.0
2022-09-09T07:04:09.715Z,2.0
2022-09-09T07:06:02.921Z,2.1
2022-09-09T07:08:02.859Z,2.1
2022-09-09T07:10:03.814Z,2.2
2022-09-09T07:12:02.711Z,2.0
2022-09-09T07:14:02.355Z,2.0
2022-09-09T07:16:06.784Z,2.2
2022-09-09T07:18:03.069Z,2.2
2022-09-09T07:20:03.320Z,2.0
2022-09-09T07:22:03.964Z,2.1
2022-09-09T07:24:03.528Z,2.0
2022-09-09T07:26:03.818Z,1.9
2022-09-09T07:28:02.583Z,2.2
2022-09-09T07:30:03.151Z,2.2
2022-09-09T07:32:04.820Z,2.3
2022-09-09T07:34:02.931Z,2.3
2022-09-09T07:36:08.488Z,2.0
2022-09-09T07:38:07.204Z,2.4
2022-09-09T07:40:04.287Z,2.4
2022-09-09T07:42:02.281Z,2.4
2022-09-09T07:44:07.233Z,2.2
2022-09-09T07:46:02.193Z,2.1
2022-09-09T07:48:02.195Z,2.1
2022-09-09T07:50:02.423Z,2.0
2022-09-09T07:52:03.789Z,2.0
2022-09-09T07:54:04.751Z,2.1
2022-09-09T07:56:06.880Z,1.9
2022-09-09T07:58:02.204Z,1.8
2022-09-09T08:00:03.165Z,2.1
2022-09-09T08:02:02.960Z,2.1
2022-09-09T08:04:04.831Z,2.1
2022-09-09T08:06:03.634Z,2.1
2022-09-09T08:08:04.284Z,2.1
2022-09-09T08:10:02.131Z,1.8
2022-09-09T08:12:02.555Z,1.9
2022-09-09T08:14:02.715Z,2.1
2022-09-09T08:16:08.248Z,2.1
2022-09-09T08:18:03.183Z,2.2
2022-09-09T08:20:06.395Z,1.9
2022-09-09T08:22:03.472Z,2.3
2022-09-09T08:24:02.800Z,2.3
2022-09-09T08:26:06.321Z,1.9
2022-09-09T08:28:02.372Z,2.0
2022-09-09T08:30:02.896Z,1.9
2022-09-09T08:32:02.781Z,1.9
2022-09-09T08:34:03.934Z,1.9
2022-09-09T08:36:02.283Z,2.0
2022-09-09T08:38:05.492Z,1.9
2022-09-09T08:40:03.730Z,2.1
2022-09-09T08:42:19.294Z,2.1
2022-09-09T08:44:08.182Z,2.0
2022-09-09T08:46:11.162Z,1.9
2022-09-09T08:48:11.218Z,1.9
2022-09-09T08:50:17.603Z,2.3
2022-09-09T08:52:04.233Z,2.4
2022-09-09T08:54:05.048Z,2.1
2022-09-09T08:56:09.549Z,2.1
2022-09-09T08:58:10.243Z,2.0
2022-09-09T09:00:04.138Z,2.1
2022-09-09T09:02:16.826Z,2.1
2022-09-09T09:04:09.199Z,2.2
2022-09-09T09:06:10.496Z,2.1
2022-09-09T09:08:16.960Z,2.2
2022-09-09T09:10:30.723Z,2.2
2022-09-09T09:12:16.122Z,1.9
2022-09-09T09:14:08.241Z,2.2
2022-09-09T09:16:14.860Z,2.1
2022-09-09T09:18:02.254Z,2.1
2022-09-09T09:20:04.056Z,2.1
2022-09-09T09:22:07.926Z,1.9
2022-09-09T09:24:04.557Z,2.2
2022-09-09T09:26:02.609Z,2.0
2022-09-09T09:28:06.398Z,2.0
2022-09-09T09:30:29.415Z,2.2
2022-09-09T09:32:04.649Z,2.3
2022-09-09T09:34:03.068Z,2.3
2022-09-09T09:36:03.453Z,2.4
2022-09-09T09:40:10.286Z,2.1
2022-09-09T09:42:14.591Z,2.1
2022-09-09T09:44:05.071Z,2.1
2022-09-09T09:46:17.674Z,2.1
2022-09-09T09:48:07.785Z,2.5
2022-09-09T09:50:02.844Z,2.2
2022-09-09T09:52:03.456Z,2.2
2022-09-09T09:54:15.794Z,2.2
2022-09-09T09:56:04.942Z,2.2
2022-09-09T10:00:07.575Z,2.1
2022-09-09T10:02:16.665Z,2.3
2022-09-09T10:04:13.126Z,2.4
2022-09-09T10:06:02.194Z,2.3
2022-09-09T10:08:06.136Z,2.0
2022-09-09T10:10:02.362Z,2.0
2022-09-09T10:12:14.802Z,1.9
2022-09-09T10:14:08.601Z,1.9
2022-09-09T10:16:15.457Z,2.1
2022-09-09T10:18:17.163Z,2.1
2022-09-09T10:20:21.222Z,1.8
2022-09-09T10:22:22.179Z,2.2
2022-09-09T10:24:19.194Z,2.2
2022-09-09T10:26:17.985Z,1.8
2022-09-09T10:28:21.210Z,2.1
2022-09-09T10:30:09.435Z,2.3
2022-09-09T10:32:12.871Z,2.2
2022-09-09T10:34:16.947Z,2.3
2022-09-09T10:36:14.199Z,2.5
2022-09-09T10:38:14.334Z,2.2
2022-09-09T10:40:15.323Z,2.3
2022-09-09T10:42:08.631Z,2.6
2022-09-09T10:44:19.621Z,2.4
2022-09-09T10:46:12.099Z,2.5
2022-09-09T10:48:14.487Z,2.9
2022-09-09T10:50:17.116Z,3.0
2022-09-09T10:52:11.586Z,2.5
2022-09-09T10:54:19.870Z,2.8
2022-09-09T10:56:08.019Z,2.3
2022-09-09T10:58:04.842Z,2.3
2022-09-09T11:00:07.258Z,2.6
2022-09-09T11:02:08.972Z,2.5
2022-09-09T11:04:11.382Z,2.8
2022-09-09T11:06:07.441Z,2.8
2022-09-09T11:08:06.797Z,2.6
2022-09-09T11:10:08.280Z,2.3
2022-09-09T11:12:03.109Z,2.7
2022-09-09T11:14:10.321Z,2.6
2022-09-09T11:16:16.058Z,2.4
2022-09-09T11:18:05.674Z,2.3
2022-09-09T11:20:02.407Z,2.9
2022-09-09T11:22:06.329Z,2.5
2022-09-09T11:24:09.688Z,2.6
2022-09-09T11:26:05.590Z,2.8
2022-09-09T11:28:21.705Z,2.7
2022-09-09T11:30:32.332Z,2.7
2022-09-09T11:32:13.807Z,3.0
2022-09-09T11:34:19.384Z,2.4
2022-09-09T11:36:16.298Z,2.8
2022-09-09T11:38:13.834Z,2.7
2022-09-09T11:40:17.348Z,2.7
2022-09-09T11:42:09.027Z,2.8
2022-09-09T11:44:13.434Z,2.8
2022-09-09T11:46:04.450Z,2.8
2022-09-09T11:48:04.378Z,3.0
2022-09-09T11:50:21.265Z,2.8
2022-09-09T11:52:21.189Z,2.7
2022-09-09T11:54:12.805Z,2.5
2022-09-09T11:56:06.315Z,2.6
2022-09-09T11:58:04.477Z,2.7
2022-09-09T12:00:04.035Z,2.6
2022-09-09T12:02:04.499Z,2.5
2022-09-09T12:04:21.317Z,2.5
2022-09-09T12:06:11.882Z,2.2
2022-09-09T12:08:04.321Z,2.3
2022-09-09T12:10:07.563Z,2.4
2022-09-09T12:12:21.335Z,2.5
2022-09-09T12:14:03.074Z,2.5
2022-09-09T12:16:03.182Z,2.9
2022-09-09T12:18:03.545Z,2.4
2022-09-09T12:20:10.159Z,2.4
2022-09-09T12:22:09.092Z,2.6
2022-09-09T12:24:09.664Z,2.6
2022-09-09T12:26:12.737Z,2.4
2022-09-09T12:28:12.899Z,2.5
2022-09-09T12:30:06.605Z,2.5
2022-09-09T12:32:08.595Z,2.7
2022-09-09T12:34:12.719Z,2.2
2022-09-09T12:36:05.181Z,2.2
2022-09-09T12:38:07.579Z,3.0
2022-09-09T12:40:05.030Z,2.4
2022-09-09T12:42:04.554Z,2.9
2022-09-09T12:44:07.177Z,2.5
2022-09-09T12:46:09.347Z,2.3
2022-09-09T12:48:07.109Z,2.6
2022-09-09T12:50:02.415Z,2.6
2022-09-09T12:52:06.379Z,2.9
2022-09-09T12:54:03.936Z,3.1
2022-09-09T12:56:07.049Z,2.7
2022-09-09T12:58:06.065Z,3.2
2022-09-09T13:00:09.737Z,2.8
2022-09-09T13:02:03.153Z,2.6
2022-09-09T13:04:03.144Z,3.0
2022-09-09T13:06:14.833Z,2.8
2022-09-09T13:08:04.066Z,2.9
2022-09-09T13:10:02.775Z,2.8
2022-09-09T13:12:06.549Z,3.0
2022-09-09T13:14:03.956Z,2.7
2022-09-09T13:16:05.148Z,2.6
2022-09-09T13:18:13.359Z,2.9
2022-09-09T13:20:03.194Z,3.2
2022-09-09T13:22:13.820Z,3.1
2022-09-09T13:24:04.019Z,2.4
2022-09-09T13:26:06.697Z,2.4
2022-09-09T13:28:04.328Z,2.8
2022-09-09T13:30:02.733Z,2.9
2022-09-09T13:32:08.449Z,2.9
2022-09-09T13:34:13.960Z,3.2
2022-09-09T13:36:05.200Z,2.8
2022-09-09T13:38:10.245Z,3.3
2022-09-09T13:40:04.633Z,2.7
2022-09-09T13:42:03.832Z,2.7
2022-09-09T13:44:03.739Z,2.7
2022-09-09T13:46:05.444Z,3.0
2022-09-09T13:48:10.299Z,3.3
2022-09-09T13:50:20.650Z,3.3
2022-09-09T13:52:08.115Z,2.9
2022-09-09T13:54:02.899Z,3.0
2022-09-09T13:56:02.414Z,2.9
2022-09-09T13:58:05.605Z,3.4
2022-09-09T14:00:06.251Z,2.9
2022-09-09T14:02:02.593Z,3.1
2022-09-09T14:04:02.305Z,2.8
2022-09-09T14:06:02.228Z,3.0
2022-09-09T14:08:04.778Z,2.9
2022-09-09T14:10:02.339Z,2.9
2022-09-09T14:12:02.885Z,2.7
2022-09-09T14:14:02.573Z,3.2
2022-09-09T14:16:03.047Z,2.9
2022-09-09T14:18:02.747Z,2.5
2022-09-09T14:20:02.282Z,2.5
2022-09-09T14:22:02.675Z,2.6
2022-09-09T14:24:02.960Z,2.6
2022-09-09T14:26:02.899Z,2.3
2022-09-09T14:28:02.788Z,2.2
2022-09-09T14:30:02.999Z,2.5
2022-09-09T14:32:02.298Z,2.0
2022-09-09T14:34:02.153Z,2.1
2022-09-09T14:36:04.903Z,2.1
2022-09-09T14:38:02.995Z,1.9
2022-09-09T14:40:02.435Z,2.3
2022-09-09T14:42:03.012Z,2.2
2022-09-09T14:44:02.260Z,2.4
2022-09-09T14:46:06.638Z,2.2
2022-09-09T14:48:02.574Z,2.1
2022-09-09T14:50:04.648Z,2.1
2022-09-09T14:52:02.629Z,2.3
2022-09-09T14:54:02.738Z,2.1
2022-09-09T14:56:08.932Z,2.7
2022-09-09T14:58:02.711Z,2.3
2022-09-09T15:00:04.059Z,2.4
2022-09-09T15:02:04.718Z,2.3
2022-09-09T15:04:06.438Z,2.3
2022-09-09T15:06:09.174Z,2.6
2022-09-09T15:08:02.296Z,2.4
2022-09-09T15:10:02.341Z,2.3
2022-09-09T15:12:03.430Z,2.4
2022-09-09T15:14:02.327Z,2.3
2022-09-09T15:16:06.769Z,2.4
2022-09-09T15:18:02.149Z,2.2
2022-09-09T15:20:02.507Z,2.0
2022-09-09T15:22:03.743Z,2.1
2022-09-09T15:24:02.458Z,2.0
2022-09-09T15:26:02.725Z,2.0
2022-09-09T15:28:02.599Z,2.1
2022-09-09T15:30:02.162Z,2.1
2022-09-09T15:32:02.277Z,2.0
2022-09-09T15:34:04.421Z,1.9
2022-09-09T15:36:12.351Z,1.8
2022-09-09T15:38:05.504Z,1.9
2022-09-09T15:40:02.410Z,1.9
2022-09-09T15:42:02.473Z,1.8
2022-09-09T15:44:03.290Z,2.0
2022-09-09T15:46:19.259Z,1.9
2022-09-09T15:48:02.730Z,2.0
2022-09-09T15:50:03.118Z,1.8
2022-09-09T15:52:03.976Z,2.0
2022-09-09T15:54:02.438Z,1.9
2022-09-09T15:56:02.403Z,2.2
2022-09-09T15:58:02.297Z,1.9
2022-09-09T16:00:03.399Z,1.8
2022-09-09T16:02:03.936Z,1.7
2022-09-09T16:04:02.329Z,1.9
2022-09-09T16:06:02.263Z,1.9
2022-09-09T16:08:03.677Z,1.9
2022-09-09T16:10:04.052Z,1.9
2022-09-09T16:12:07.000Z,1.8
2022-09-09T16:14:03.871Z,2.0
2022-09-09T16:16:03.248Z,1.9
2022-09-09T16:18:02.584Z,2.0
2022-09-09T16:20:02.615Z,1.9
2022-09-09T16:22:03.022Z,2.1
2022-09-09T16:24:05.108Z,2.1
2022-09-09T16:26:05.892Z,2.0
2022-09-09T16:28:02.370Z,2.1
2022-09-09T16:30:02.858Z,1.9
2022-09-09T16:32:04.192Z,2.0
2022-09-09T16:34:03.780Z,3.3
2022-09-09T16:36:06.613Z,4.2
2022-09-09T16:38:02.733Z,3.4
2022-09-09T16:40:03.854Z,3.7
2022-09-09T16:42:03.727Z,3.1
2022-09-09T16:44:04.704Z,2.7
2022-09-09T16:46:02.489Z,3.3
2022-09-09T16:48:03.228Z,3.8
2022-09-09T16:50:03.513Z,3.4
2022-09-09T16:52:02.539Z,3.4
2022-09-09T16:54:04.872Z,3.4
2022-09-09T16:56:06.851Z,3.5
2022-09-09T16:58:02.136Z,3.5
2022-09-09T17:00:05.721Z,3.9
2022-09-09T17:02:05.538Z,3.9
2022-09-09T17:04:05.627Z,4.5
2022-09-09T17:06:03.051Z,4.2
2022-09-09T17:08:02.393Z,4.2
2022-09-09T17:10:02.747Z,4.5
2022-09-09T17:12:02.478Z,4.3
2022-09-09T17:14:03.848Z,4.5
2022-09-09T17:16:06.036Z,4.0
2022-09-09T17:18:02.220Z,4.2
2022-09-09T17:20:02.796Z,4.5
2022-09-09T17:22:16.761Z,4.3
2022-09-09T17:24:02.496Z,4.3
2022-09-09T17:26:02.806Z,4.8
2022-09-09T17:28:04.468Z,3.4
2022-09-09T17:30:03.562Z,4.3
2022-09-09T17:32:03.644Z,5.7
2022-09-09T17:34:02.211Z,6.3
2022-09-09T17:36:07.579Z,6.0
2022-09-09T17:38:02.305Z,5.9
2022-09-09T17:40:02.753Z,6.1
2022-09-09T17:42:03.210Z,5.9
2022-09-09T17:44:04.359Z,5.7
2022-09-09T17:46:10.175Z,6.0
2022-09-09T17:48:03.346Z,6.0
2022-09-09T17:50:02.409Z,6.0
2022-09-09T17:52:02.340Z,5.6
2022-09-09T17:54:06.380Z,5.2
2022-09-09T17:56:03.827Z,4.9
2022-09-09T17:58:02.369Z,5.8
2022-09-09T18:00:02.337Z,4.9
2022-09-09T18:02:05.068Z,5.1
2022-09-09T18:04:04.489Z,5.0
2022-09-09T18:06:03.611Z,5.5
2022-09-09T18:08:02.686Z,5.0
2022-09-09T18:10:02.786Z,5.1
2022-09-09T18:12:02.471Z,5.6
2022-09-09T18:14:04.846Z,5.8
2022-09-09T18:16:02.767Z,4.8
2022-09-09T18:18:05.639Z,5.0
2022-09-09T18:20:03.076Z,5.5
2022-09-09T18:22:05.323Z,5.8
2022-09-09T18:24:05.684Z,6.1
2022-09-09T18:26:10.178Z,5.4
2022-09-09T18:28:02.266Z,5.1
2022-09-09T18:30:02.195Z,5.4
2022-09-09T18:32:02.412Z,5.6
2022-09-09T18:34:04.028Z,5.5
2022-09-09T18:36:06.818Z,5.8
2022-09-09T18:38:02.487Z,6.3
2022-09-09T18:40:03.723Z,5.9
2022-09-09T18:42:03.127Z,6.4
2022-09-09T18:44:05.243Z,6.0
2022-09-09T18:46:04.365Z,6.3
2022-09-09T18:48:02.579Z,7.3
2022-09-09T18:50:02.919Z,7.1
2022-09-09T18:52:03.968Z,7.1
2022-09-09T18:54:05.928Z,8.7
2022-09-09T18:56:05.227Z,8.0
2022-09-09T18:58:03.395Z,10.0
2022-09-09T19:00:02.395Z,9.7
2022-09-09T19:02:03.906Z,8.8
2022-09-09T19:04:04.110Z,10.8
2022-09-09T19:06:05.019Z,11.0
2022-09-09T19:08:03.080Z,12.3
2022-09-09T19:10:03.289Z,10.8
2022-09-09T19:12:03.286Z,12.4
2022-09-09T19:14:05.326Z,13.8
2022-09-09T19:16:05.296Z,12.5
2022-09-09T19:18:05.946Z,13.4
2022-09-09T19:20:02.455Z,13.1
2022-09-09T19:22:05.379Z,13.2
2022-09-09T19:24:06.219Z,14.1
2022-09-09T19:26:05.777Z,14.5
2022-09-09T19:28:03.335Z,14.0
2022-09-09T19:30:02.172Z,12.8
2022-09-09T19:32:51.772Z,13.3
2022-09-09T19:34:02.838Z,13.4
2022-09-09T19:36:06.072Z,13.6
2022-09-09T19:38:02.411Z,14.1
2022-09-09T19:40:04.477Z,13.6
2022-09-09T19:42:02.316Z,14.4
2022-09-09T19:44:06.062Z,15.5
2022-09-09T19:46:04.709Z,16.2
2022-09-09T19:48:02.655Z,16.6
2022-09-09T19:50:05.286Z,15.5
2022-09-09T19:52:02.441Z,15.6
2022-09-09T19:54:05.043Z,15.8
2022-09-09T19:56:03.329Z,16.3
2022-09-09T19:58:02.196Z,15.5
2022-09-09T20:00:03.649Z,17.1
2022-09-09T20:02:03.322Z,19.1
2022-09-09T20:04:05.785Z,19.7
2022-09-09T20:06:02.643Z,19.4
2022-09-09T20:08:02.457Z,17.3
2022-09-09T20:10:03.224Z,16.4
2022-09-09T20:12:02.428Z,16.6
2022-09-09T20:14:03.097Z,15.8
2022-09-09T20:16:05.484Z,16.0
2022-09-09T20:18:02.598Z,16.9
2022-09-09T20:20:03.657Z,16.1
2022-09-09T20:22:02.419Z,16.7
2022-09-09T20:24:05.609Z,17.2
2022-09-09T20:26:06.150Z,15.9
2022-09-09T20:28:02.372Z,16.4
2022-09-09T20:30:02.205Z,15.9
2022-09-09T20:32:02.299Z,16.9
2022-09-09T20:34:05.720Z,16.8
2022-09-09T20:36:11.118Z,17.8
2022-09-09T20:38:02.867Z,17.4
2022-09-09T20:40:02.664Z,17.5
2022-09-09T20:42:02.793Z,17.0
2022-09-09T20:44:05.497Z,16.2
2022-09-09T20:46:04.375Z,17.6
2022-09-09T20:48:02.357Z,16.3
2022-09-09T20:50:02.367Z,15.1
2022-09-09T20:52:02.470Z,14.5
2022-09-09T20:54:05.229Z,15.3
2022-09-09T20:56:03.873Z,15.1
2022-09-09T20:58:03.853Z,14.8
2022-09-09T21:00:02.531Z,15.0
2022-09-09T21:02:02.933Z,13.8
2022-09-09T21:04:02.438Z,12.0
2022-09-09T21:06:02.403Z,12.2
2022-09-09T21:08:02.679Z,11.9
2022-09-09T21:10:02.282Z,11.7
2022-09-09T21:12:02.688Z,10.8
2022-09-09T21:14:03.691Z,11.5
2022-09-09T21:16:03.282Z,11.2
2022-09-09T21:18:02.181Z,10.2
2022-09-09T21:20:03.892Z,10.7
2022-09-09T21:22:02.911Z,10.4
2022-09-09T21:24:03.498Z,10.6
2022-09-09T21:26:03.933Z,11.2
2022-09-09T21:28:03.602Z,11.5
2022-09-09T21:30:03.066Z,11.2
2022-09-09T21:32:03.289Z,11.6
2022-09-09T21:34:02.194Z,13.5
2022-09-09T21:36:04.294Z,11.7
2022-09-09T21:38:03.024Z,11.7
2022-09-09T21:40:02.597Z,12.5
2022-09-09T21:42:02.190Z,12.8
2022-09-09T21:44:03.000Z,13.2
2022-09-09T21:46:07.875Z,12.1
2022-09-09T21:48:02.801Z,12.1
2022-09-09T21:50:02.532Z,12.6
2022-09-09T21:52:02.643Z,12.2
2022-09-09T21:54:02.734Z,11.6
2022-09-09T21:56:06.372Z,11.6
2022-09-09T21:58:03.075Z,11.6
2022-09-09T22:00:02.427Z,11.6
2022-09-09T22:02:02.491Z,11.7
2022-09-09T22:04:02.416Z,12.7
2022-09-09T22:06:06.084Z,12.5
2022-09-09T22:08:02.424Z,13.0
2022-09-09T22:10:05.292Z,12.7
2022-09-09T22:12:02.565Z,13.9
2022-09-09T22:14:02.365Z,12.7
2022-09-09T22:16:04.300Z,12.9
2022-09-09T22:18:03.468Z,11.4
2022-09-09T22:20:02.603Z,11.9
2022-09-09T22:22:02.281Z,12.1
2022-09-09T22:24:05.327Z,13.1
2022-09-09T22:26:03.131Z,13.0
2022-09-09T22:28:03.182Z,12.7
2022-09-09T22:30:02.630Z,11.9
2022-09-09T22:32:02.973Z,11.2
2022-09-09T22:34:02.754Z,11.3
2022-09-09T22:36:02.407Z,11.5
2022-09-09T22:38:03.262Z,11.9
2022-09-09T22:40:02.647Z,10.9
2022-09-09T22:42:05.778Z,11.1
2022-09-09T22:44:02.394Z,11.5
2022-09-09T22:46:03.536Z,11.9
2022-09-09T22:48:02.557Z,11.5
2022-09-09T22:50:02.509Z,10.8
2022-09-09T22:52:02.434Z,11.1
2022-09-09T22:54:02.989Z,11.3
2022-09-09T22:56:05.634Z,11.4
2022-09-09T22:58:03.368Z,10.5
2022-09-09T23:00:02.681Z,10.6
2022-09-09T23:02:02.715Z,10.3
2022-09-09T23:04:02.392Z,9.9
2022-09-09T23:06:03.845Z,10.1
2022-09-09T23:08:02.380Z,10.2
2022-09-09T23:10:04.839Z,10.0
2022-09-09T23:12:02.764Z,9.6
2022-09-09T23:14:06.561Z,9.7
2022-09-09T23:16:08.418Z,9.4
2022-09-09T23:18:02.236Z,9.6
2022-09-09T23:20:03.551Z,10.1
2022-09-09T23:22:02.197Z,9.8
2022-09-09T23:24:02.537Z,9.8
2022-09-09T23:26:04.801Z,10.6
2022-09-09T23:28:02.649Z,10.0
2022-09-09T23:30:02.194Z,9.8
2022-09-09T23:32:02.519Z,9.5
2022-09-09T23:34:02.376Z,10.7
2022-09-09T23:36:07.448Z,11.2
2022-09-09T23:38:02.966Z,10.0
2022-09-09T23:40:02.609Z,10.7
2022-09-09T23:42:06.099Z,10.6
2022-09-09T23:44:03.689Z,10.1
2022-09-09T23:46:02.325Z,11.0
2022-09-09T23:48:03.367Z,11.1
2022-09-09T23:50:02.668Z,12.3
2022-09-09T23:52:04.885Z,12.3
2022-09-09T23:54:04.814Z,11.5
2022-09-09T23:56:03.281Z,11.8
2022-09-09T23:58:02.606Z,11.9
